Time;durP1;ratioP1;P1;durP2;ratioP2;P2;SDS_P1;SDS_P2;PMS_P1;PMS_P2;Temp;Humidity;BMP_temperature;BMP_pressure;BME280_temperature;BME280_humidity;BME280_pressure;Samples;Min_cycle;Max_cycle;Signal;HPM_P1;HPM_P2
2021/06/15 00:02:02;;;;;;;1999.90;999.90;;;;;;;11.69;78.11;93397.69;5009634;28;20834;-44
2021/06/15 00:04:28;;;;;;;1999.90;999.90;;;;;;;11.73;78.00;93398.78;5009501;28;20038;-40
2021/06/15 00:06:54;;;;;;;1999.90;999.90;;;;;;;11.82;77.34;93395.44;5009418;28;20065;-43
2021/06/15 00:09:19;;;;;;;1999.90;999.90;;;;;;;11.78;77.46;93386.78;5009507;28;20046;-45
2021/06/15 00:11:45;;;;;;;1999.90;999.90;;;;;;;11.72;78.46;93382.75;5008021;28;20088;-41
2021/06/15 00:14:10;;;;;;;1999.90;999.90;;;;;;;11.78;78.08;93388.81;5013098;28;20033;-40
2021/06/15 00:16:36;;;;;;;1999.90;999.90;;;;;;;11.84;76.97;93381.06;5013180;28;20477;-39
2021/06/15 00:19:01;;;;;;;1999.90;999.90;;;;;;;11.79;76.62;93384.75;5008204;28;20030;-40
2021/06/15 00:21:27;;;;;;;1999.90;999.90;;;;;;;11.79;76.77;93388.25;4993118;28;20022;-40
2021/06/15 00:23:52;;;;;;;1999.90;999.90;;;;;;;11.73;76.92;93387.00;5006865;28;20034;-40
2021/06/15 00:26:18;;;;;;;1999.90;999.90;;;;;;;11.68;77.97;93391.44;5012288;28;20101;-41
2021/06/15 00:28:43;;;;;;;1999.90;999.90;;;;;;;11.65;78.63;93384.19;5012997;28;20022;-40
2021/06/15 00:31:08;;;;;;;1999.90;999.90;;;;;;;11.70;78.66;93393.63;5012863;28;20398;-42
2021/06/15 00:33:34;;;;;;;1999.90;999.90;;;;;;;11.68;78.80;93387.91;5006983;28;20033;-43
2021/06/15 00:35:59;;;;;;;1999.90;999.90;;;;;;;11.58;79.46;93398.81;5002940;28;20480;-41
2021/06/15 00:38:25;;;;;;;1999.90;999.90;;;;;;;11.59;79.25;93397.50;5003780;28;20464;-44
2021/06/15 00:40:50;;;;;;;1999.90;999.90;;;;;;;11.55;79.38;93399.16;5000801;28;20022;-41
2021/06/15 00:43:16;;;;;;;1999.90;999.90;;;;;;;11.67;78.86;93397.53;5003392;28;20033;-40
2021/06/15 00:45:42;;;;;;;1999.90;999.90;;;;;;;11.67;78.93;93398.25;4993145;28;20478;-40
2021/06/15 00:48:34;;;;;;;1999.90;999.90;;;;;;;11.71;78.84;93395.84;4992265;28;20113;-39
2021/06/15 00:51:02;;;;;;;1999.90;999.90;;;;;;;11.70;78.82;93396.38;5011418;28;20029;-39
2021/06/15 00:53:29;;;;;;;1999.90;999.90;;;;;;;11.61;78.52;93400.44;5010968;28;20030;-39
2021/06/15 00:55:54;;;;;;;1999.90;999.90;;;;;;;11.71;78.89;93395.09;5012275;28;20034;-40
2021/06/15 00:58:21;;;;;;;1999.90;999.90;;;;;;;11.71;78.52;93390.31;5012164;28;20468;-40
2021/06/15 01:00:47;;;;;;;1999.90;999.90;;;;;;;11.78;78.10;93397.13;5012326;28;20417;-40
2021/06/15 01:03:14;;;;;;;1999.90;999.90;;;;;;;11.83;77.24;93390.63;5012197;28;20030;-40
2021/06/15 01:05:39;;;;;;;1999.90;999.90;;;;;;;11.69;78.22;93395.69;5011043;28;20026;-39
2021/06/15 01:08:17;;;;;;;1999.90;999.90;;;;;;;11.58;79.47;93396.03;5011174;28;20125;-40
2021/06/15 01:10:53;;;;;;;1999.90;999.90;;;;;;;11.63;79.26;93388.84;5012367;28;20037;-40
2021/06/15 01:13:46;;;;;;;1999.90;999.90;;;;;;;11.78;79.12;93389.53;4997404;28;20034;-39
2021/06/15 01:16:19;;;;;;;1999.90;999.90;;;;;;;11.75;77.59;93393.44;5004040;28;20751;-40
2021/06/15 01:18:47;;;;;;;1999.90;999.90;;;;;;;11.56;77.74;93373.75;5010924;28;20461;-41
2021/06/15 01:21:13;;;;;;;1999.90;999.90;;;;;;;11.72;77.19;93385.50;5011842;28;20034;-40
2021/06/15 01:23:41;;;;;;;1999.90;999.90;;;;;;;11.66;77.64;93382.91;5010407;28;20049;-43
2021/06/15 01:26:25;;;;;;;1999.90;999.90;;;;;;;11.59;78.04;93380.91;5011617;28;20129;-40
2021/06/15 01:29:09;;;;;;;1999.90;999.90;;;;;;;11.60;77.85;93374.09;5012136;28;20033;-43
2021/06/15 01:31:52;;;;;;;1999.90;999.90;;;;;;;11.44;79.15;93372.66;5011799;28;20030;-40
2021/06/15 01:34:21;;;;;;;1999.90;999.90;;;;;;;11.44;78.89;93369.88;5010505;28;20033;-39
2021/06/15 01:36:48;;;;;;;;;;;;;;;11.46;79.21;93374.88;5011526;28;20444;-42
2021/06/15 01:39:17;;;;;;;1999.90;999.90;;;;;;;11.42;79.44;93364.91;4991559;28;20397;-41
2021/06/15 01:41:51;;;;;;;1999.90;999.90;;;;;;;11.42;79.89;93364.91;4990598;28;20726;-39
2021/06/15 01:44:17;;;;;;;1999.90;999.90;;;;;;;11.42;80.68;93370.44;4991998;28;20088;-43
2021/06/15 01:46:51;;;;;;;1999.90;999.90;;;;;;;11.56;79.31;93365.44;4991566;28;20033;-42
2021/06/15 01:49:19;;;;;;;1999.90;999.90;;;;;;;11.56;78.07;93365.44;4994975;28;20117;-42
2021/06/15 01:51:47;;;;;;;1999.90;999.90;;;;;;;11.51;77.68;93347.03;5010367;28;20554;-39
2021/06/15 01:54:20;;;;;;;1999.90;999.90;;;;;;;11.57;77.89;93358.59;5010029;28;20037;-39
2021/06/15 01:56:46;;;;;;;1999.90;999.90;;;;;;;11.49;79.17;93368.97;5009964;28;20057;-39
2021/06/15 01:59:13;;;;;;;1999.90;999.90;;;;;;;11.37;80.30;93365.09;5011248;28;20025;-40
2021/06/15 02:01:41;;;;;;;1999.90;999.90;;;;;;;11.40;80.29;93366.75;5010715;28;20514;-39
2021/06/15 02:04:07;;;;;;;1999.90;999.90;;;;;;;11.36;80.19;93361.63;5006351;28;20042;-42
2021/06/15 02:06:34;;;;;;;1999.90;999.90;;;;;;;11.45;79.22;93368.59;4991436;28;20041;-41
2021/06/15 02:09:02;;;;;;;1999.90;999.90;;;;;;;11.47;79.26;93370.81;4991535;28;20022;-42
2021/06/15 02:11:29;;;;;;;1999.90;999.90;;;;;;;11.42;79.51;93369.72;4995362;28;20123;-43
2021/06/15 02:13:58;;;;;;;1999.90;999.90;;;;;;;11.44;79.72;93367.84;4992714;28;20416;-41
2021/06/15 02:16:23;;;;;;;1999.90;999.90;;;;;;;11.50;79.82;93370.41;4989856;28;20498;-41
2021/06/15 02:18:52;;;;;;;1999.90;999.90;;;;;;;11.54;80.19;93370.06;4990035;28;20041;-39
2021/06/15 02:21:18;;;;;;;1999.90;999.90;;;;;;;11.46;80.28;93361.06;4990027;28;20410;-44
2021/06/15 02:23:45;;;;;;;1999.90;999.90;;;;;;;11.46;79.41;93359.00;4989635;28;20037;-45
2021/06/15 02:26:14;;;;;;;1999.90;999.90;;;;;;;11.49;78.92;93357.16;4989277;28;20497;-41
2021/06/15 02:28:40;;;;;;;1999.90;999.90;;;;;;;11.60;77.62;93363.03;4990671;28;20039;-43
2021/06/15 02:31:09;;;;;;;1999.90;999.90;;;;;;;11.52;78.28;93362.31;4991206;28;20030;-41
2021/06/15 02:33:36;;;;;;;;;;;;;;;11.43;78.88;93366.38;4991439;28;20509;-42
2021/06/15 02:36:05;;;;;;;1999.90;999.90;;;;;;;11.37;79.01;93365.09;4996376;28;20041;-41
2021/06/15 02:38:33;;;;;;;1999.90;999.90;;;;;;;11.44;78.40;93372.66;5010391;28;20034;-46
2021/06/15 02:41:04;;;;;;;1999.90;999.90;;;;;;;11.35;78.01;93378.75;5009476;28;20029;-43
2021/06/15 02:43:31;;;;;;;1999.90;999.90;;;;;;;11.34;78.75;93375.25;5010848;28;20386;-38
2021/06/15 02:45:57;;;;;;;1999.90;999.90;;;;;;;11.35;79.11;93382.25;5010599;28;20114;-41
2021/06/15 02:48:23;;;;;;;1999.90;999.90;;;;;;;11.39;78.97;93387.41;5010363;28;20025;-42
2021/06/15 02:50:51;;;;;;;1999.90;999.90;;;;;;;11.46;78.00;93400.47;4997759;28;20092;-41
2021/06/15 02:53:22;;;;;;;1999.90;999.90;;;;;;;11.42;78.44;93411.91;5000374;28;20513;-42
2021/06/15 02:55:56;;;;;;;1999.90;999.90;;;;;;;11.38;77.87;93408.03;4998211;28;20085;-43
2021/06/15 02:58:21;;;;;;;1999.90;999.90;;;;;;;11.40;77.75;93411.72;4997716;28;20041;-40
2021/06/15 03:00:47;;;;;;;1999.90;999.90;;;;;;;11.41;76.89;93412.47;5000759;28;20026;-43
2021/06/15 03:03:12;;;;;;;1999.90;999.90;;;;;;;11.35;76.13;93415.41;4998276;28;20037;-40
2021/06/15 03:05:38;;;;;;;1999.90;999.90;;;;;;;11.20;76.14;93417.44;4998991;28;20030;-41
2021/06/15 03:08:04;;;;;;;1999.90;999.90;;;;;;;11.09;76.12;93432.38;4999489;28;20037;-41
2021/06/15 03:10:29;;;;;;;1999.90;999.90;;;;;;;10.97;77.28;93433.31;5000270;28;20029;-44
2021/06/15 03:13:04;;;;;;;1999.90;999.90;;;;;;;10.93;77.85;93432.94;5000564;28;20382;-45
2021/06/15 03:15:47;;;;;;;1999.90;999.90;;;;;;;10.88;78.81;93442.13;4997339;28;20034;-45
2021/06/15 03:18:29;;;;;;;1999.90;999.90;;;;;;;10.89;77.69;93438.09;4999099;28;20462;-44
2021/06/15 03:20:56;;;;;;;1999.90;999.90;;;;;;;10.85;78.48;93435.69;5001282;28;20026;-40
2021/06/15 03:23:22;;;;;;;1999.90;999.90;;;;;;;10.88;78.42;93423.53;4996886;28;20037;-41
2021/06/15 03:25:49;;;;;;;1999.90;999.90;;;;;;;10.98;78.97;93429.25;4999998;28;20042;-42
2021/06/15 03:28:23;;;;;;;1999.90;999.90;;;;;;;11.03;78.21;93433.84;5005109;28;20083;-41
2021/06/15 03:30:49;;;;;;;1999.90;999.90;;;;;;;11.05;77.11;93426.50;5009959;28;20285;-41
2021/06/15 03:33:16;;;;;;;1999.90;999.90;;;;;;;10.94;78.00;93428.88;5008263;28;20045;-41
2021/06/15 03:35:45;;;;;;;1999.90;999.90;;;;;;;10.93;78.25;93422.63;5009872;28;20018;-39
2021/06/15 03:38:12;;;;;;;1999.90;999.90;;;;;;;10.91;77.71;93435.50;5008312;28;20041;-42
2021/06/15 03:40:42;;;;;;;1999.90;999.90;;;;;;;10.78;78.55;93432.91;5009630;28;20084;-42
2021/06/15 03:43:09;;;;;;;1999.90;999.90;;;;;;;10.88;78.88;93431.81;5009612;28;20056;-41
2021/06/15 03:45:40;;;;;;;1999.90;999.90;;;;;;;10.90;78.21;93442.31;5008123;28;20030;-42
2021/06/15 03:48:06;;;;;;;1999.90;999.90;;;;;;;10.81;78.73;93448.38;5010627;28;20029;-43
2021/06/15 03:50:34;;;;;;;1999.90;999.90;;;;;;;10.83;79.14;93451.34;4998644;28;20034;-43
2021/06/15 03:53:02;;;;;;;1999.90;999.90;;;;;;;10.90;78.91;93443.06;4992937;28;20041;-42
2021/06/15 03:55:29;;;;;;;1999.90;999.90;;;;;;;11.06;79.19;93441.78;4993747;28;20109;-42
2021/06/15 03:57:56;;;;;;;1999.90;999.90;;;;;;;11.12;79.82;93447.13;4993609;28;20031;-41
2021/06/15 04:00:24;;;;;;;1999.90;999.90;;;;;;;11.15;78.33;93443.97;4993754;28;20703;-43
2021/06/15 04:02:53;;;;;;;1999.90;999.90;;;;;;;11.14;78.69;93445.28;4991837;28;20034;-42
2021/06/15 04:05:22;;;;;;;1999.90;999.90;;;;;;;11.08;78.79;93421.88;5007040;28;20410;-44
2021/06/15 04:07:47;;;;;;;1999.90;999.90;;;;;;;11.26;79.30;93449.13;5013053;28;20417;-44
2021/06/15 04:10:15;;;;;;;1999.90;999.90;;;;;;;11.25;79.27;93453.22;5012055;28;20031;-42
2021/06/15 04:12:41;;;;;;;1999.90;999.90;;;;;;;11.33;78.82;93453.94;5004999;28;20057;-42
2021/06/15 04:15:11;;;;;;;1999.90;999.90;;;;;;;11.34;78.77;93458.19;4993638;28;20026;-42
2021/06/15 04:17:39;;;;;;;1999.90;999.90;;;;;;;11.36;78.68;93457.63;4992484;28;20026;-43
2021/06/15 04:20:06;;;;;;;1999.90;999.90;;;;;;;11.35;78.68;93456.88;4993577;28;20165;-42
2021/06/15 04:22:34;;;;;;;1999.90;999.90;;;;;;;11.39;78.52;93459.28;4996073;28;20040;-42
2021/06/15 04:25:05;;;;;;;1999.90;999.90;;;;;;;11.43;78.06;93446.53;5011728;28;20028;-42
2021/06/15 04:27:31;;;;;;;1999.90;999.90;;;;;;;11.51;77.55;93454.09;5012764;28;20026;-42
2021/06/15 04:29:57;;;;;;;1999.90;999.90;;;;;;;11.40;77.87;93457.97;5011409;28;20068;-40
2021/06/15 04:32:30;;;;;;;1999.90;999.90;;;;;;;11.39;77.40;93464.81;5012615;28;20036;-40
2021/06/15 04:34:59;;;;;;;1999.90;999.90;;;;;;;11.37;77.54;93465.34;5011499;28;20037;-41
2021/06/15 04:37:25;;;;;;;1999.90;999.90;;;;;;;11.43;77.50;93462.41;5011577;28;20101;-42
2021/06/15 04:40:01;;;;;;;1999.90;999.90;;;;;;;11.43;78.04;93456.88;5012284;28;20029;-43
2021/06/15 04:54:56;;;;;;;1999.90;999.90;;;;;;;12.43;73.25;93484.50;5107359;27;21173;-41
2021/06/15 04:57:26;;;;;;;1999.90;999.90;;;;;;;12.27;73.51;93480.34;5107311;28;20054;-41
2021/06/15 04:59:53;;;;;;;1999.90;999.90;;;;;;;12.26;73.71;93481.63;5101148;28;20028;-41
2021/06/15 05:02:20;;;;;;;1999.90;999.90;;;;;;;12.16;74.27;93478.72;5066215;28;20111;-40
2021/06/15 05:04:45;;;;;;;1999.90;999.90;;;;;;;12.06;74.99;93475.03;5066521;28;20060;-40
2021/06/15 05:07:12;;;;;;;1999.90;999.90;;;;;;;12.04;75.05;93487.97;5065280;28;20107;-40
2021/06/15 05:09:38;;;;;;;1999.90;999.90;;;;;;;11.95;74.80;93488.56;5065103;28;20056;-40
2021/06/15 05:12:06;;;;;;;1999.90;999.90;;;;;;;11.96;74.76;93488.00;5065251;28;20413;-40
2021/06/15 05:14:33;;;;;;;1999.90;999.90;;;;;;;12.04;74.87;93483.16;5065135;28;20036;-41
2021/06/15 05:17:01;;;;;;;1999.90;999.90;;;;;;;12.05;75.22;93476.34;5069144;28;20089;-38
2021/06/15 05:19:26;;;;;;;1999.90;999.90;;;;;;;12.04;75.40;93476.91;5085508;28;20028;-38
2021/06/15 05:21:59;;;;;;;1999.90;999.90;;;;;;;11.94;75.79;93478.75;5084977;28;20150;-40
2021/06/15 05:24:52;;;;;;;1999.90;999.90;;;;;;;12.02;75.83;93485.00;5085005;28;20020;-41
2021/06/15 05:27:21;;;;;;;1999.90;999.90;;;;;;;11.95;75.67;93486.50;5083110;28;20036;-41
2021/06/15 05:29:47;;;;;;;1999.90;999.90;;;;;;;11.99;75.88;93492.41;5084923;28;20119;-41
2021/06/15 05:32:13;;;;;;;1999.90;999.90;;;;;;;12.02;76.14;93490.53;5080235;28;20107;-41
2021/06/15 05:34:38;;;;;;;1999.90;999.90;;;;;;;12.02;75.24;93494.06;5073724;28;20051;-41
2021/06/15 05:37:05;;;;;;;1999.90;999.90;;;;;;;12.07;74.42;93490.38;5065569;28;20037;-42
2021/06/15 05:39:33;;;;;;;1999.90;999.90;;;;;;;12.13;75.01;93496.44;5065489;28;20032;-40
2021/06/15 05:41:59;;;;;;;1999.90;999.90;;;;;;;12.09;75.60;93500.88;5065342;28;20032;-41
2021/06/15 05:44:24;;;;;;;1999.90;999.90;;;;;;;12.08;74.64;93502.19;5073351;28;20052;-41
2021/06/15 05:46:50;;;;;;;1999.90;999.90;;;;;;;12.17;73.90;93510.63;5074828;28;20111;-41
2021/06/15 05:49:15;;;;;;;1999.90;999.90;;;;;;;12.14;75.01;93503.44;5074076;28;20023;-41
2021/06/15 05:51:41;;;;;;;1999.90;999.90;;;;;;;12.19;74.84;93504.56;5073739;28;20111;-40
2021/06/15 05:54:06;;;;;;;1999.90;999.90;;;;;;;12.11;74.93;93501.78;5081707;28;20048;-40
2021/06/15 05:56:32;;;;;;;1999.90;999.90;;;;;;;12.13;74.33;93506.75;5072225;28;20521;-40
2021/06/15 05:58:58;;;;;;;1999.90;999.90;;;;;;;12.23;74.74;93515.97;5055103;28;20029;-39
2021/06/15 06:01:25;;;;;;;1999.90;999.90;;;;;;;12.26;74.68;93509.31;5064222;28;20527;-40
2021/06/15 06:09:10;;;;;;;1999.90;999.90;;;;;;;12.02;74.88;93507.88;5010135;28;20088;-40
2021/06/15 06:11:35;;;;;;;1999.90;999.90;;;;;;;12.10;75.81;93513.41;5011284;28;20710;-42
2021/06/15 06:14:01;;;;;;;1999.90;999.90;;;;;;;12.01;74.40;93505.69;5010993;28;20157;-41
2021/06/15 06:16:27;;;;;;;1999.90;999.90;;;;;;;11.77;75.51;93501.50;5011324;28;20092;-45
2021/06/15 06:18:52;;;;;;;1999.90;999.90;;;;;;;11.28;76.42;93507.38;5011244;28;20096;-40
2021/06/15 06:21:18;;;;;;;1999.90;999.90;;;;;;;11.10;77.75;93478.06;5011529;28;20057;-39
2021/06/15 06:23:44;;;;;;;1999.90;999.90;;;;;;;11.28;78.37;93504.59;5009643;28;20033;-39
2021/06/15 06:26:09;;;;;;;1999.90;999.90;;;;;;;11.33;78.55;93498.16;5009784;28;20030;-42
2021/06/15 06:28:35;;;;;;;1999.90;999.90;;;;;;;11.36;78.14;93501.84;5010521;28;20026;-42
2021/06/15 06:31:00;;;;;;;1999.90;999.90;;;;;;;11.42;76.98;93496.88;5010902;28;20034;-41
2021/06/15 06:33:26;;;;;;;1999.90;999.90;;;;;;;11.16;77.42;93500.00;5011049;28;20030;-40
2021/06/15 06:35:51;;;;;;;1999.90;999.90;;;;;;;11.05;78.59;93498.31;5011255;28;20030;-41
2021/06/15 06:38:17;;;;;;;1999.90;999.90;;;;;;;11.14;79.22;93499.81;5010855;28;20066;-40
2021/06/15 06:40:42;;;;;;;1999.90;999.90;;;;;;;11.22;78.96;93506.81;5010410;28;20033;-41
2021/06/15 06:43:09;;;;;;;1999.90;999.90;;;;;;;11.37;78.84;93501.28;5010731;28;20117;-42
2021/06/15 06:45:35;;;;;;;1999.90;999.90;;;;;;;11.45;78.65;93506.84;5010723;28;20114;-39
2021/06/15 06:48:02;;;;;;;1999.90;999.90;;;;;;;11.54;78.55;93486.19;5010234;28;20480;-39
2021/06/15 06:50:27;;;;;;;1999.90;999.90;;;;;;;11.83;78.20;93501.28;5010527;28;20034;-41
2021/06/15 06:52:53;;;;;;;1999.90;999.90;;;;;;;11.99;77.02;93500.72;5010298;28;20082;-39
2021/06/15 06:55:20;;;;;;;1999.90;999.90;;;;;;;12.10;77.57;93496.81;5010384;28;20084;-39
2021/06/15 06:57:47;;;;;;;1999.90;999.90;;;;;;;12.23;77.80;93498.63;5008140;28;20033;-40
2021/06/15 07:00:13;;;;;;;1999.90;999.90;;;;;;;12.39;77.29;93489.69;5008507;28;20124;-41
2021/06/15 07:02:38;;;;;;;1999.90;999.90;;;;;;;12.52;75.76;93492.22;5008399;28;20487;-40
2021/06/15 07:05:04;;;;;;;1999.90;999.90;;;;;;;12.55;74.77;93496.66;5008146;28;20041;-40
2021/06/15 07:07:29;;;;;;;1999.90;999.90;;;;;;;12.76;75.32;93488.78;5007288;28;20491;-40
2021/06/15 07:09:55;;;;;;;1999.90;999.90;;;;;;;12.82;74.76;93496.91;5007687;28;20025;-41
2021/06/15 07:12:20;;;;;;;1999.90;999.90;;;;;;;12.92;74.22;93490.19;5007886;28;20092;-42
2021/06/15 07:14:46;;;;;;;1999.90;999.90;;;;;;;13.09;74.13;93497.88;5006921;28;20042;-43
2021/06/15 07:17:11;;;;;;;1999.90;999.90;;;;;;;13.20;73.20;93500.22;5007174;28;20033;-41
2021/06/15 07:19:37;;;;;;;1999.90;999.90;;;;;;;13.35;73.56;93499.34;5008053;28;20581;-40
2021/06/15 07:22:03;;;;;;;1999.90;999.90;;;;;;;13.53;72.94;93495.34;5008426;28;20033;-40
2021/06/15 07:24:29;;;;;;;1999.90;999.90;;;;;;;13.69;72.36;93491.88;5007864;28;20030;-40
2021/06/15 07:26:54;;;;;;;1999.90;999.90;;;;;;;13.68;70.48;93490.41;5007528;28;20728;-41
2021/06/15 07:29:20;;;;;;;1999.90;999.90;;;;;;;13.78;71.34;93489.75;5008002;28;20041;-41
2021/06/15 07:31:45;;;;;;;1999.90;999.90;;;;;;;13.95;71.49;93479.41;5007625;28;20108;-40
2021/06/15 07:34:10;;;;;;;1999.90;999.90;;;;;;;14.02;70.88;93477.88;5015384;28;20025;-41
2021/06/15 07:36:36;;;;;;;1999.90;999.90;;;;;;;14.20;70.12;93477.31;5020967;28;20033;-40
2021/06/15 07:39:02;;;;;;;1999.90;999.90;;;;;;;14.29;69.41;93481.50;5016088;28;20030;-41
2021/06/15 07:41:28;;;;;;;1999.90;999.90;;;;;;;14.39;69.78;93479.53;5012256;28;20100;-40
2021/06/15 07:43:53;;;;;;;1999.90;999.90;;;;;;;14.61;68.52;93480.56;5007617;28;20038;-42
2021/06/15 07:46:19;;;;;;;1999.90;999.90;;;;;;;14.62;68.57;93473.72;5012211;28;20033;-40
2021/06/15 07:48:44;;;;;;;1999.90;999.90;;;;;;;14.61;68.39;93472.97;5015523;28;20033;-40
2021/06/15 07:51:10;;;;;;;1999.90;999.90;;;;;;;14.75;68.77;93479.66;5022464;28;20090;-40
2021/06/15 07:53:35;;;;;;;1999.90;999.90;;;;;;;15.00;67.67;93477.47;5006779;28;20058;-40
2021/06/15 07:56:01;;;;;;;1999.90;999.90;;;;;;;15.09;67.19;93476.06;5007521;28;20088;-41
2021/06/15 07:58:26;;;;;;;1999.90;999.90;;;;;;;15.21;67.28;93474.19;5006777;28;20038;-40
2021/06/15 08:00:52;;;;;;;1999.90;999.90;;;;;;;15.30;67.31;93473.50;5002700;28;20471;-40
2021/06/15 08:03:18;;;;;;;1999.90;999.90;;;;;;;15.43;65.79;93480.72;5005823;28;20040;-40
2021/06/15 08:05:43;;;;;;;1999.90;999.90;;;;;;;15.55;65.83;93481.69;5006381;28;20474;-41
2021/06/15 08:08:09;;;;;;;1999.90;999.90;;;;;;;15.63;64.16;93474.69;5006833;28;20033;-40
2021/06/15 08:10:34;;;;;;;1999.90;999.90;;;;;;;15.61;64.31;93473.81;5006953;28;20030;-40
2021/06/15 08:13:01;;;;;;;1999.90;999.90;;;;;;;15.60;64.81;93469.53;5006468;28;20809;-41
2021/06/15 08:15:27;;;;;;;1999.90;999.90;;;;;;;15.60;66.07;93466.75;5001858;28;20351;-40
2021/06/15 08:17:53;;;;;;;1999.90;999.90;;;;;;;16.21;66.00;93460.88;5006815;28;20033;-40
2021/06/15 08:20:19;;;;;;;1999.90;999.90;;;;;;;16.80;62.75;93452.66;5006995;28;20056;-38
2021/06/15 08:22:44;;;;;;;1999.90;999.90;;;;;;;17.37;59.91;93458.06;5001057;28;20026;-39
2021/06/15 08:25:10;;;;;;;1999.90;999.90;;;;;;;17.89;58.92;93455.34;4986955;28;20041;-39
2021/06/15 08:27:36;;;;;;;1999.90;999.90;;;;;;;18.22;57.24;93452.66;4987123;28;20772;-39
2021/06/15 08:30:06;;;;;;;1999.90;999.90;;;;;;;18.27;57.68;93457.19;4986990;28;20034;-38
2021/06/15 08:32:31;;;;;;;1999.90;999.90;;;;;;;18.15;56.81;93453.56;4987036;28;20687;-39
2021/06/15 08:34:57;;;;;;;1999.90;999.90;;;;;;;18.11;56.52;93450.50;4987159;28;20042;-39
2021/06/15 08:37:22;;;;;;;1999.90;999.90;;;;;;;18.18;57.59;93449.59;4987918;28;20034;-38
2021/06/15 08:39:48;;;;;;;1999.90;999.90;;;;;;;17.83;56.58;93443.78;4987722;28;20567;-39
2021/06/15 08:42:15;;;;;;;1999.90;999.90;;;;;;;17.67;59.22;93439.88;4987091;28;20502;-39
2021/06/15 08:44:42;;;;;;;1999.90;999.90;;;;;;;17.48;60.34;93439.97;4985791;28;20672;-39
2021/06/15 08:47:07;;;;;;;1999.90;999.90;;;;;;;17.36;60.34;93453.84;4987189;28;20038;-39
2021/06/15 08:49:33;;;;;;;1999.90;999.90;;;;;;;17.28;60.42;93446.97;4995943;28;20033;-40
2021/06/15 08:51:58;;;;;;;1999.90;999.90;;;;;;;17.40;61.82;93439.41;4995671;28;20045;-38
2021/06/15 08:54:24;;;;;;;1999.90;999.90;;;;;;;17.38;61.50;93445.59;4985305;28;20124;-40
2021/06/15 08:56:50;;;;;;;1999.90;999.90;;;;;;;17.51;62.45;93436.00;4963133;28;20048;-41
2021/06/15 08:59:21;;;;;;;1999.90;999.90;;;;;;;17.80;61.54;93438.66;4990504;28;20030;-38
2021/06/15 09:01:49;;;;;;;1999.90;999.90;;;;;;;18.16;60.54;93430.63;4987400;28;20030;-40
2021/06/15 09:04:15;;;;;;;1999.90;999.90;;;;;;;18.40;57.26;93430.75;4987007;28;20492;-39
2021/06/15 09:06:40;;;;;;;1999.90;999.90;;;;;;;18.47;56.68;93429.84;4986947;28;20042;-40
2021/06/15 09:09:06;;;;;;;1999.90;999.90;;;;;;;18.57;57.18;93424.88;4987227;28;20211;-40
2021/06/15 09:11:52;;;;;;;1999.90;999.90;;;;;;;18.66;56.98;93429.66;4986982;28;20023;-39
2021/06/15 09:14:37;;;;;;;1999.90;999.90;;;;;;;18.80;56.06;93427.75;4998102;28;20483;-39
2021/06/15 09:17:03;;;;;;;1999.90;999.90;;;;;;;18.67;56.26;93425.53;5004832;28;20044;-41
2021/06/15 09:19:28;;;;;;;1999.90;999.90;;;;;;;18.72;57.69;93416.81;5006326;28;20034;-41
2021/06/15 09:21:57;;;;;;;1999.90;999.90;;;;;;;18.64;57.47;93421.88;5004219;28;20084;-40
2021/06/15 09:24:24;;;;;;;;;;;;;;;18.28;57.49;93430.69;4989326;28;20038;-42
2021/06/15 09:26:55;;;;;;;1999.90;999.90;;;;;;;17.67;58.30;93414.75;4987254;28;19913;-39
2021/06/15 09:29:33;;;;;;;1999.90;999.90;;;;;;;17.97;60.12;93421.66;4998736;28;20739;-41
2021/06/15 09:31:59;;;;;;;1999.90;999.90;;;;;;;18.28;60.29;93419.50;5010640;28;20499;-39
2021/06/15 09:34:24;;;;;;;1999.90;999.90;;;;;;;18.29;57.85;93411.84;5010348;28;20030;-39
2021/06/15 09:36:52;;;;;;;1999.90;999.90;;;;;;;17.87;59.02;93404.94;5010319;28;20037;-39
2021/06/15 09:39:18;;;;;;;1999.90;999.90;;;;;;;17.84;59.55;93400.56;5008001;28;20384;-39
2021/06/15 09:41:45;;;;;;;1999.90;999.90;;;;;;;17.91;58.07;93407.28;5009150;28;20124;-40
2021/06/15 09:44:30;;;;;;;1999.90;999.90;;;;;;;17.90;57.19;93406.56;5010169;28;20026;-40
2021/06/15 09:47:05;;;;;;;1999.90;999.90;;;;;;;17.75;57.61;93398.56;5008870;28;20044;-40
2021/06/15 09:49:35;;;;;;;1999.90;999.90;;;;;;;17.82;57.83;93396.91;5010201;28;20041;-40
2021/06/15 09:52:13;;;;;;;1999.90;999.90;;;;;;;17.95;58.99;93397.09;5009817;28;20037;-40
2021/06/15 09:54:56;;;;;;;1999.90;999.90;;;;;;;17.93;59.28;93391.38;5006092;28;20058;-40
2021/06/15 09:57:28;;;;;;;1999.90;999.90;;;;;;;17.77;59.47;93395.16;4990036;28;20026;-40
2021/06/15 10:00:16;;;;;;;1999.90;999.90;;;;;;;17.51;59.74;93391.34;4989242;28;20034;-39
2021/06/15 10:02:58;;;;;;;1999.90;999.90;;;;;;;17.39;59.70;93391.22;4990277;28;20042;-38
2021/06/15 10:05:35;;;;;;;1999.90;999.90;;;;;;;17.22;60.93;93393.50;4989443;28;20022;-39
2021/06/15 10:08:05;;;;;;;1999.90;999.90;;;;;;;17.25;62.15;93393.06;4989422;28;20077;-38
2021/06/15 10:10:33;;;;;;;1999.90;999.90;;;;;;;17.02;59.87;93392.13;4991180;28;20181;-38
2021/06/15 10:12:59;;;;;;;1999.90;999.90;;;;;;;17.11;60.96;93388.56;5009287;28;20030;-38
2021/06/15 10:15:26;;;;;;;1999.90;999.90;;;;;;;17.16;61.64;93384.72;5004344;28;20061;-38
2021/06/15 10:17:52;;;;;;;1999.90;999.90;;;;;;;17.06;58.87;93382.00;4989558;28;20041;-39
2021/06/15 10:20:24;;;;;;;1999.90;999.90;;;;;;;16.79;60.47;93366.81;4999816;28;20030;-41
2021/06/15 10:22:51;;;;;;;1999.90;999.90;;;;;;;17.00;61.58;93378.75;5008713;28;20030;-39
2021/06/15 10:25:19;;;;;;;1999.90;999.90;;;;;;;17.22;60.50;93387.94;5009253;28;20037;-38
2021/06/15 10:27:45;;;;;;;1999.90;999.90;;;;;;;17.41;60.70;93379.50;5007799;28;20032;-38
2021/06/15 10:30:12;;;;;;;1999.90;999.90;;;;;;;17.40;60.18;93386.38;4994145;28;20034;-37
2021/06/15 10:32:52;;;;;;;1999.90;999.90;;;;;;;17.60;60.70;93375.88;5007663;28;20069;-38
2021/06/15 10:35:36;;;;;;;1999.90;999.90;;;;;;;17.67;60.13;93372.88;5008857;28;20049;-38
2021/06/15 10:38:04;;;;;;;1999.90;999.90;;;;;;;17.79;59.66;93376.50;5008945;28;20021;-38
2021/06/15 10:40:31;;;;;;;1999.90;999.90;;;;;;;17.63;58.17;93367.03;5008769;28;20026;-37
2021/06/15 10:43:09;;;;;;;1999.90;999.90;;;;;;;17.75;58.97;93367.84;4992327;28;20038;-37
2021/06/15 10:45:35;;;;;;;1999.90;999.90;;;;;;;17.94;58.29;93369.75;4997872;28;20156;-39
2021/06/15 10:48:06;;;;;;;1999.90;999.90;;;;;;;18.08;58.17;93370.69;5008660;28;20105;-38
2021/06/15 10:51:01;;;;;;;1999.90;999.90;;;;;;;17.82;56.11;93364.09;5008976;28;20046;-38
2021/06/15 10:53:41;;;;;;;1999.90;999.90;;;;;;;17.69;58.70;93367.44;5007038;28;20523;-38
2021/06/15 10:56:08;;;;;;;1999.90;999.90;;;;;;;17.72;58.56;93354.34;5008791;28;20493;-38
2021/06/15 10:58:42;;;;;;;1999.90;999.90;;;;;;;17.80;57.82;93354.88;5008737;28;20076;-38
2021/06/15 11:01:17;;;;;;;1999.90;999.90;;;;;;;17.78;57.72;93352.66;4987496;28;20415;-38
2021/06/15 11:03:49;;;;;;;1999.90;999.90;;;;;;;17.63;57.84;93355.88;4988098;28;20045;-37
2021/06/15 11:06:16;;;;;;;1999.90;999.90;;;;;;;17.51;58.08;93351.53;4988570;28;20423;-37
2021/06/15 11:08:41;;;;;;;1999.90;999.90;;;;;;;17.30;57.53;93357.81;4988393;28;20029;-37
2021/06/15 11:11:16;;;;;;;1999.90;999.90;;;;;;;17.29;58.30;93362.66;4996769;28;20541;-39
2021/06/15 11:13:53;;;;;;;1999.90;999.90;;;;;;;17.26;58.55;93354.75;5008329;28;20053;-39
2021/06/15 11:16:24;;;;;;;1999.90;999.90;;;;;;;17.32;58.94;93347.50;5007178;28;20032;-37
2021/06/15 11:19:11;;;;;;;1999.90;999.90;;;;;;;17.27;58.49;93340.19;5008287;28;20388;-37